Terminal Aerodrome Forecast
Issued by NWS Kansas City/Pleasant Hill, MO

Home | Current Version | Previous Version | Text Only | Print | Product List | Glossary On
Versions: 1 2 3 4 5 6 7 8 9 10
000
FTUS43 KEAX 231700
TAFMCI
TAF
KMCI 231726Z 2318/2418 29008KT P6SM OVC018
     FM240000 34010KT P6SM OVC012
     FM240800 33011KT 3SM -SN BR OVC008
     FM241500 32012KT P6SM OVC012=

USA.gov is the U.S. government's official web portal to all federal, state and local government web resources and services.